Time;durP1;ratioP1;P1;durP2;ratioP2;P2;SDS_P1;SDS_P2;PMS_P1;PMS_P2;Temp;Humidity;BMP_temperature;BMP_pressure;BME280_temperature;BME280_humidity;BME280_pressure;Samples;Min_cycle;Max_cycle;Signal;HPM_P1;HPM_P2
2022/03/26 00:01:33;;;;;;;278.08;87.13;;;;;;;;;;6279584;28;20099;-66
2022/03/26 00:04:33;;;;;;;285.50;88.55;;;;;;;;;;6268384;28;20044;-64
2022/03/26 00:07:34;;;;;;;292.42;92.03;;;;;;;;;;6271581;28;20040;-63
2022/03/26 00:10:36;;;;;;;301.70;92.60;;;;;;;;;;6277674;28;20080;-62
2022/03/26 00:13:37;;;;;;;295.17;98.57;;;;;;;;;;6278649;28;20044;-65
2022/03/26 00:16:37;;;;;;;283.38;91.70;;;;;;;;;;6283410;28;20080;-65
2022/03/26 00:19:38;;;;;;;293.52;89.90;;;;;;;;;;6269567;28;20049;-64
2022/03/26 00:22:39;;;;;;;272.02;85.93;;;;;;;;;;6267236;28;20132;-64
2022/03/26 00:25:40;;;;;;;296.35;89.97;;;;;;;;;;6271369;28;20052;-62
2022/03/26 00:28:40;;;;;;;260.38;85.82;;;;;;;;;;6275016;28;20743;-62
2022/03/26 00:31:41;;;;;;;266.25;86.97;;;;;;;;;;6264749;28;20518;-62
2022/03/26 00:34:42;;;;;;;280.13;86.43;;;;;;;;;;6259916;28;20510;-60
2022/03/26 00:37:42;;;;;;;272.23;86.15;;;;;;;;;;6265330;28;20217;-65
2022/03/26 00:40:43;;;;;;;258.00;85.85;;;;;;;;;;6274502;28;20950;-62
2022/03/26 00:43:44;;;;;;;272.30;85.68;;;;;;;;;;6259016;28;20041;-59
2022/03/26 00:46:45;;;;;;;265.98;87.43;;;;;;;;;;6267942;28;20479;-53
2022/03/26 00:49:45;;;;;;;250.05;82.80;;;;;;;;;;6266261;28;20131;-57
2022/03/26 00:52:47;;;;;;;238.85;77.72;;;;;;;;;;6269740;28;20152;-59
2022/03/26 00:55:48;;;;;;;226.97;77.50;;;;;;;;;;6269957;28;20068;-54
2022/03/26 00:58:48;;;;;;;230.50;76.10;;;;;;;;;;6268705;28;20691;-62
2022/03/26 01:01:49;;;;;;;228.18;77.10;;;;;;;;;;6270550;28;20083;-65
2022/03/26 01:04:49;;;;;;;230.23;77.45;;;;;;;;;;6266567;28;20047;-62
2022/03/26 01:07:52;;;;;;;226.13;75.65;;;;;;;;;;6269675;28;20875;-66
2022/03/26 01:10:52;;;;;;;233.10;75.20;;;;;;;;;;6271267;28;20037;-56
2022/03/26 01:13:56;;;;;;;225.73;73.13;;;;;;;;;;6269326;28;20068;-65
2022/03/26 01:16:56;;;;;;;233.25;78.13;;;;;;;;;;6267505;28;20045;-61
2022/03/26 01:19:59;;;;;;;215.52;74.40;;;;;;;;;;6268527;28;20119;-57
2022/03/26 01:23:00;;;;;;;220.35;73.57;;;;;;;;;;6272222;28;20045;-63
2022/03/26 01:26:04;;;;;;;207.88;72.85;;;;;;;;;;6270976;28;20566;-65
2022/03/26 01:29:05;;;;;;;224.23;74.65;;;;;;;;;;6267820;28;20048;-59
2022/03/26 01:32:07;;;;;;;222.13;76.65;;;;;;;;;;6274672;28;20114;-59
2022/03/26 01:35:08;;;;;;;208.27;73.47;;;;;;;;;;6273415;28;20049;-63
2022/03/26 01:38:08;;;;;;;223.98;75.18;;;;;;;;;;6275567;28;20135;-62
2022/03/26 01:41:10;;;;;;;216.45;75.22;;;;;;;;;;6274228;28;20139;-62
2022/03/26 01:44:14;;;;;;;230.93;75.07;;;;;;;;;;6267957;28;20146;-59
2022/03/26 01:47:15;;;;;;;219.55;74.47;;;;;;;;;;6271498;28;20053;-60
2022/03/26 01:50:16;;;;;;;210.02;74.10;;;;;;;;;;6273691;28;20078;-65
2022/03/26 01:53:16;;;;;;;217.20;74.85;;;;;;;;;;6266841;28;20045;-65
2022/03/26 01:56:18;;;;;;;210.88;72.68;;;;;;;;;;6272921;28;20469;-65
2022/03/26 01:59:19;;;;;;;244.90;77.93;;;;;;;;;;6273650;28;20467;-63
2022/03/26 02:02:20;;;;;;;205.77;71.13;;;;;;;;;;6270642;28;20057;-65
2022/03/26 02:05:21;;;;;;;216.27;72.88;;;;;;;;;;6274432;28;20402;-54
2022/03/26 02:08:21;;;;;;;215.38;71.60;;;;;;;;;;6272206;28;20044;-62
2022/03/26 02:11:23;;;;;;;202.90;71.75;;;;;;;;;;6273071;28;20084;-59
2022/03/26 02:14:24;;;;;;;206.90;73.32;;;;;;;;;;6267649;28;20080;-63
2022/03/26 02:17:25;;;;;;;219.77;76.68;;;;;;;;;;6270219;28;20381;-59
2022/03/26 02:20:26;;;;;;;220.10;75.60;;;;;;;;;;6268923;28;20048;-56
2022/03/26 02:23:27;;;;;;;218.70;76.32;;;;;;;;;;6274807;28;20153;-63
2022/03/26 02:26:28;;;;;;;220.70;72.30;;;;;;;;;;6273831;28;20040;-66
2022/03/26 02:29:28;;;;;;;206.38;69.32;;;;;;;;;;6276094;28;20055;-60
2022/03/26 02:32:29;;;;;;;218.90;70.55;;;;;;;;;;6268837;28;20634;-54
2022/03/26 02:35:29;;;;;;;221.63;72.60;;;;;;;;;;6269740;28;20044;-64
2022/03/26 02:38:30;;;;;;;200.23;69.55;;;;;;;;;;6276107;28;20044;-64
2022/03/26 02:41:33;;;;;;;198.95;70.65;;;;;;;;;;6268119;28;20530;-61
2022/03/26 02:44:33;;;;;;;198.15;68.63;;;;;;;;;;6268644;28;20088;-59
2022/03/26 02:47:34;;;;;;;205.07;69.40;;;;;;;;;;6274357;28;20052;-57
2022/03/26 02:50:35;;;;;;;201.63;70.75;;;;;;;;;;6271953;28;20045;-62
2022/03/26 02:53:35;;;;;;;193.90;67.90;;;;;;;;;;6268381;28;20911;-56
2022/03/26 02:56:36;;;;;;;195.00;67.07;;;;;;;;;;6265862;28;20404;-63
2022/03/26 02:59:36;;;;;;;192.25;68.97;;;;;;;;;;6268452;28;20127;-56
2022/03/26 03:02:37;;;;;;;177.30;65.38;;;;;;;;;;6268844;28;20049;-65
2022/03/26 03:05:37;;;;;;;193.05;66.47;;;;;;;;;;6271343;28;20212;-59
2022/03/26 03:08:38;;;;;;;186.00;67.40;;;;;;;;;;6269798;28;20045;-65
2022/03/26 03:11:39;;;;;;;189.63;68.13;;;;;;;;;;6268173;28;20124;-61
2022/03/26 03:14:39;;;;;;;198.13;68.13;;;;;;;;;;6272195;28;20041;-58
2022/03/26 03:17:41;;;;;;;196.77;68.70;;;;;;;;;;6271879;28;20044;-62
2022/03/26 03:20:42;;;;;;;199.32;69.80;;;;;;;;;;6273817;28;20048;-58
2022/03/26 03:23:42;;;;;;;187.68;66.32;;;;;;;;;;6271147;28;20126;-59
2022/03/26 03:26:43;;;;;;;190.50;69.28;;;;;;;;;;6273597;28;20084;-60
2022/03/26 03:29:43;;;;;;;187.77;66.68;;;;;;;;;;6274973;28;20051;-56
2022/03/26 03:32:44;;;;;;;192.13;67.47;;;;;;;;;;6272930;28;20051;-58
2022/03/26 03:35:45;;;;;;;191.32;67.60;;;;;;;;;;6267113;28;20048;-59
2022/03/26 03:38:46;;;;;;;194.60;66.03;;;;;;;;;;6267667;28;20048;-58
2022/03/26 03:41:46;;;;;;;184.20;63.65;;;;;;;;;;6268483;28;20132;-56
2022/03/26 03:44:47;;;;;;;182.88;65.93;;;;;;;;;;6271154;28;20045;-61
2022/03/26 03:47:48;;;;;;;183.35;65.03;;;;;;;;;;6273197;28;20049;-63
2022/03/26 03:50:49;;;;;;;182.40;65.65;;;;;;;;;;6272960;28;20053;-57
2022/03/26 03:53:49;;;;;;;186.85;65.15;;;;;;;;;;6265605;28;20091;-62
2022/03/26 03:56:51;;;;;;;188.68;66.63;;;;;;;;;;6269597;28;20057;-57
2022/03/26 03:59:52;;;;;;;201.35;65.93;;;;;;;;;;6270896;28;20052;-58
2022/03/26 04:02:53;;;;;;;189.03;64.07;;;;;;;;;;6269641;28;20056;-57
2022/03/26 04:05:54;;;;;;;192.63;67.72;;;;;;;;;;6273123;28;20067;-63
2022/03/26 04:08:54;;;;;;;188.98;66.43;;;;;;;;;;6269424;28;20052;-59
2022/03/26 04:11:55;;;;;;;200.57;67.75;;;;;;;;;;6268976;28;20045;-60
2022/03/26 04:14:55;;;;;;;195.40;69.53;;;;;;;;;;6271405;28;20083;-57
2022/03/26 04:17:56;;;;;;;190.20;63.78;;;;;;;;;;6271062;28;20040;-62
2022/03/26 04:20:57;;;;;;;190.52;67.47;;;;;;;;;;6261974;28;20055;-57
2022/03/26 04:23:57;;;;;;;190.85;65.78;;;;;;;;;;6264330;28;20482;-55
2022/03/26 04:26:58;;;;;;;194.07;64.05;;;;;;;;;;6269784;28;20051;-64
2022/03/26 04:29:59;;;;;;;175.10;63.85;;;;;;;;;;6271749;28;20048;-60
2022/03/26 04:32:59;;;;;;;190.27;66.15;;;;;;;;;;6270114;28;20044;-65
2022/03/26 04:36:00;;;;;;;182.75;63.67;;;;;;;;;;6269837;28;20143;-65
2022/03/26 04:39:01;;;;;;;174.43;62.83;;;;;;;;;;6270525;28;20523;-63
2022/03/26 04:42:02;;;;;;;194.60;65.93;;;;;;;;;;6270695;28;20072;-66
2022/03/26 04:45:03;;;;;;;188.52;65.47;;;;;;;;;;6262667;28;20157;-65
2022/03/26 04:48:04;;;;;;;185.95;63.75;;;;;;;;;;6275000;28;20048;-64
2022/03/26 04:51:05;;;;;;;194.95;67.45;;;;;;;;;;6276170;28;20045;-66
2022/03/26 04:54:06;;;;;;;174.23;64.68;;;;;;;;;;6266939;28;20072;-65
2022/03/26 04:57:06;;;;;;;179.40;65.10;;;;;;;;;;6265084;28;20063;-62
2022/03/26 05:00:09;;;;;;;190.15;65.75;;;;;;;;;;6269422;28;20053;-63
2022/03/26 05:03:10;;;;;;;186.27;65.57;;;;;;;;;;6264169;28;20046;-65
2022/03/26 05:06:11;;;;;;;184.05;63.38;;;;;;;;;;6269871;28;20102;-58
2022/03/26 05:09:11;;;;;;;187.18;64.15;;;;;;;;;;6269437;28;20052;-63
2022/03/26 05:12:12;;;;;;;184.43;66.63;;;;;;;;;;6268288;28;20083;-63
2022/03/26 05:15:14;;;;;;;189.50;67.82;;;;;;;;;;6264930;28;20045;-66
2022/03/26 05:18:14;;;;;;;176.07;63.95;;;;;;;;;;6265437;28;20056;-64
2022/03/26 05:21:15;;;;;;;176.63;60.53;;;;;;;;;;6271900;28;20076;-65
2022/03/26 05:24:16;;;;;;;163.82;56.72;;;;;;;;;;6270732;28;20059;-62
2022/03/26 05:27:16;;;;;;;153.25;56.50;;;;;;;;;;6266137;28;20144;-65
2022/03/26 05:30:18;;;;;;;164.70;59.50;;;;;;;;;;6266355;28;20049;-65
2022/03/26 05:33:19;;;;;;;146.82;57.38;;;;;;;;;;6268783;28;20083;-64
2022/03/26 05:36:20;;;;;;;169.52;59.35;;;;;;;;;;6268347;28;20064;-65
2022/03/26 05:39:20;;;;;;;154.00;58.15;;;;;;;;;;6269755;28;20053;-65
2022/03/26 05:42:21;;;;;;;151.27;56.28;;;;;;;;;;6263931;28;20088;-63
2022/03/26 05:45:22;;;;;;;146.77;54.63;;;;;;;;;;6271637;28;20049;-61
2022/03/26 05:48:22;;;;;;;142.85;55.25;;;;;;;;;;6270123;28;20621;-63
2022/03/26 05:51:23;;;;;;;141.90;53.78;;;;;;;;;;6269079;28;20548;-65
2022/03/26 05:54:23;;;;;;;122.85;47.95;;;;;;;;;;6266768;28;20055;-63
2022/03/26 05:57:24;;;;;;;136.43;52.03;;;;;;;;;;6272149;28;20514;-64
2022/03/26 06:00:25;;;;;;;136.35;49.35;;;;;;;;;;6259761;28;20550;-65
2022/03/26 06:03:25;;;;;;;146.52;50.35;;;;;;;;;;6266559;28;20052;-65
2022/03/26 06:06:26;;;;;;;131.20;46.00;;;;;;;;;;6260223;28;20080;-65
2022/03/26 06:09:27;;;;;;;125.68;45.92;;;;;;;;;;6266944;28;20060;-65
2022/03/26 06:12:27;;;;;;;118.85;44.83;;;;;;;;;;6266302;28;20136;-63
2022/03/26 06:15:28;;;;;;;138.57;48.95;;;;;;;;;;6274654;28;20056;-64
2022/03/26 06:18:28;;;;;;;126.53;46.55;;;;;;;;;;6272579;28;20045;-64
2022/03/26 06:21:33;;;;;;;130.18;46.65;;;;;;;;;;6274716;28;20059;-65
2022/03/26 06:24:34;;;;;;;127.90;48.00;;;;;;;;;;6274086;28;20060;-65
2022/03/26 06:27:35;;;;;;;127.03;45.47;;;;;;;;;;6267026;28;20049;-65
2022/03/26 06:30:36;;;;;;;125.25;45.90;;;;;;;;;;6272636;28;20191;-65
2022/03/26 06:33:37;;;;;;;122.60;45.08;;;;;;;;;;6265793;28;20049;-63
2022/03/26 06:36:39;;;;;;;123.40;46.13;;;;;;;;;;6270712;28;20483;-65
2022/03/26 06:39:40;;;;;;;128.45;46.90;;;;;;;;;;6266365;28;20179;-64
2022/03/26 06:42:40;;;;;;;132.27;46.60;;;;;;;;;;6264310;28;20057;-66
2022/03/26 06:45:41;;;;;;;128.15;45.75;;;;;;;;;;6265071;28;20059;-66
2022/03/26 06:48:41;;;;;;;120.18;45.88;;;;;;;;;;6244753;28;20140;-59
2022/03/26 06:51:42;;;;;;;124.68;44.25;;;;;;;;;;6252653;28;20141;-62
2022/03/26 06:54:43;;;;;;;115.25;44.97;;;;;;;;;;6270527;28;20053;-64
2022/03/26 06:57:44;;;;;;;109.70;42.58;;;;;;;;;;6267278;28;20485;-64
2022/03/26 07:00:44;;;;;;;115.60;43.75;;;;;;;;;;6268519;28;20084;-65
2022/03/26 07:03:45;;;;;;;120.53;41.33;;;;;;;;;;6269026;28;20049;-58
2022/03/26 07:06:45;;;;;;;110.88;40.65;;;;;;;;;;6262869;28;20144;-65
2022/03/26 07:09:46;;;;;;;100.55;37.03;;;;;;;;;;6251095;28;20052;-65
2022/03/26 07:12:46;;;;;;;102.32;37.00;;;;;;;;;;6265377;28;20171;-62
2022/03/26 07:15:48;;;;;;;87.57;32.60;;;;;;;;;;6267352;28;20489;-64
2022/03/26 07:18:48;;;;;;;90.97;32.72;;;;;;;;;;6269410;28;20045;-64
2022/03/26 07:21:49;;;;;;;87.60;31.00;;;;;;;;;;6267097;28;20049;-65
2022/03/26 07:24:50;;;;;;;88.57;31.52;;;;;;;;;;6268927;28;20254;-63
2022/03/26 07:27:50;;;;;;;89.82;31.65;;;;;;;;;;6262064;28;20057;-64
2022/03/26 07:30:51;;;;;;;84.68;30.50;;;;;;;;;;6263896;28;20484;-64
2022/03/26 07:33:52;;;;;;;85.38;30.17;;;;;;;;;;6267380;28;20060;-67
2022/03/26 07:36:53;;;;;;;83.30;30.50;;;;;;;;;;6268283;28;20064;-66
2022/03/26 07:39:54;;;;;;;83.53;29.90;;;;;;;;;;6274136;28;20049;-66
2022/03/26 07:42:54;;;;;;;96.93;30.55;;;;;;;;;;6269862;28;20128;-60
2022/03/26 07:45:55;;;;;;;88.20;29.40;;;;;;;;;;6271284;28;20478;-66
2022/03/26 07:48:56;;;;;;;83.68;29.77;;;;;;;;;;6275923;28;20087;-57
2022/03/26 07:51:56;;;;;;;90.40;32.33;;;;;;;;;;6256569;28;20048;-66
2022/03/26 07:54:57;;;;;;;92.82;30.17;;;;;;;;;;6260427;28;20460;-67
2022/03/26 07:57:57;;;;;;;92.80;31.23;;;;;;;;;;6269110;28;20051;-58
2022/03/26 08:00:58;;;;;;;84.88;28.77;;;;;;;;;;6254763;28;20069;-57
2022/03/26 08:03:59;;;;;;;85.78;30.52;;;;;;;;;;6244097;28;20053;-61
2022/03/26 08:06:59;;;;;;;98.10;30.35;;;;;;;;;;6265132;28;20114;-64
2022/03/26 08:10:00;;;;;;;88.30;30.48;;;;;;;;;;6266922;28;20053;-58
2022/03/26 08:13:00;;;;;;;87.15;29.83;;;;;;;;;;6267974;28;20091;-57
2022/03/26 08:16:01;;;;;;;93.90;31.08;;;;;;;;;;6267913;28;20091;-61
2022/03/26 08:19:02;;;;;;;93.38;31.77;;;;;;;;;;6265166;28;20060;-66
2022/03/26 08:22:04;;;;;;;99.38;31.33;;;;;;;;;;6263447;28;20111;-58
2022/03/26 08:25:05;;;;;;;102.53;33.40;;;;;;;;;;6267938;28;20053;-65
2022/03/26 08:28:08;;;;;;;109.30;36.70;;;;;;;;;;6267910;28;20877;-65
2022/03/26 08:31:10;;;;;;;86.10;29.77;;;;;;;;;;6260682;28;20063;-66
2022/03/26 08:34:12;;;;;;;100.88;32.35;;;;;;;;;;6265827;28;20048;-65
2022/03/26 08:37:12;;;;;;;98.97;32.53;;;;;;;;;;6262675;28;20153;-65
2022/03/26 08:40:13;;;;;;;98.80;32.92;;;;;;;;;;6265420;28;20045;-65
2022/03/26 08:43:13;;;;;;;90.22;30.40;;;;;;;;;;6267263;28;20504;-63
2022/03/26 08:46:14;;;;;;;87.00;29.02;;;;;;;;;;6264712;28;20130;-62
2022/03/26 08:49:15;;;;;;;92.13;28.95;;;;;;;;;;6267690;28;20076;-65
2022/03/26 08:52:17;;;;;;;87.55;29.65;;;;;;;;;;6252830;28;20120;-61
2022/03/26 08:55:18;;;;;;;95.13;30.67;;;;;;;;;;6260850;28;20076;-64
2022/03/26 08:58:19;;;;;;;86.47;29.45;;;;;;;;;;6243386;28;20053;-60
2022/03/26 09:01:19;;;;;;;80.47;26.17;;;;;;;;;;6250371;28;20549;-65
2022/03/26 09:04:20;;;;;;;83.80;26.92;;;;;;;;;;6267849;28;20057;-65
2022/03/26 09:07:21;;;;;;;72.40;27.08;;;;;;;;;;6267063;28;20059;-64
2022/03/26 09:10:22;;;;;;;74.72;25.35;;;;;;;;;;6264594;28;20049;-65
2022/03/26 09:13:23;;;;;;;78.90;29.27;;;;;;;;;;6266484;28;20053;-70
2022/03/26 09:16:24;;;;;;;87.07;27.92;;;;;;;;;;6266621;28;20076;-59
2022/03/26 09:19:24;;;;;;;73.50;26.02;;;;;;;;;;6264249;28;20476;-64
2022/03/26 09:22:25;;;;;;;74.93;27.60;;;;;;;;;;6262042;28;20093;-59
2022/03/26 09:25:26;;;;;;;74.25;26.67;;;;;;;;;;6264168;28;20104;-66
2022/03/26 09:28:26;;;;;;;71.25;22.95;;;;;;;;;;6262088;28;20095;-62
2022/03/26 09:31:27;;;;;;;72.22;26.20;;;;;;;;;;6261393;28;20045;-61
2022/03/26 09:34:28;;;;;;;60.97;22.40;;;;;;;;;;6264855;28;20049;-69
2022/03/26 09:37:28;;;;;;;69.32;22.33;;;;;;;;;;6261232;28;20056;-69
2022/03/26 09:40:32;;;;;;;78.55;24.67;;;;;;;;;;6261968;28;20049;-67
2022/03/26 09:43:32;;;;;;;57.55;21.42;;;;;;;;;;6265424;28;20115;-60
2022/03/26 09:46:35;;;;;;;60.72;21.73;;;;;;;;;;6266881;28;20049;-59
2022/03/26 09:49:39;;;;;;;60.28;20.75;;;;;;;;;;6268558;28;20041;-65
2022/03/26 09:52:39;;;;;;;57.65;23.00;;;;;;;;;;6268067;28;20076;-64
2022/03/26 09:55:43;;;;;;;56.83;21.65;;;;;;;;;;6270569;28;20045;-66
2022/03/26 09:58:44;;;;;;;57.17;20.67;;;;;;;;;;6268909;28;20079;-61
2022/03/26 10:01:44;;;;;;;57.70;19.52;;;;;;;;;;6261934;28;20037;-64
2022/03/26 10:04:45;;;;;;;52.88;18.25;;;;;;;;;;6268113;28;20102;-69
2022/03/26 10:07:47;;;;;;;58.35;21.00;;;;;;;;;;6267176;28;20136;-58
2022/03/26 10:10:50;;;;;;;53.30;19.40;;;;;;;;;;6268403;28;20041;-59
2022/03/26 10:13:52;;;;;;;;;;;;;;;;;;6269269;28;20523;-66
2022/03/26 10:16:52;;;;;;;53.45;19.17;;;;;;;;;;6271867;28;19945;-59
2022/03/26 10:20:00;;;;;;;65.32;22.23;;;;;;;;;;6245843;28;20402;-67
2022/03/26 10:23:01;;;;;;;51.00;18.95;;;;;;;;;;6260112;28;20404;-63
2022/03/26 10:26:10;;;;;;;59.63;21.77;;;;;;;;;;6246184;28;20060;-65
2022/03/26 10:29:11;;;;;;;52.58;19.88;;;;;;;;;;6246364;28;20045;-59
2022/03/26 10:35:31;;;;;;;79.30;25.55;;;;;;;;;;6245866;28;20053;-68
2022/03/26 10:38:37;;;;;;;61.55;21.30;;;;;;;;;;6253297;28;20947;-61
2022/03/26 10:41:37;;;;;;;79.45;23.67;;;;;;;;;;6268573;28;20060;-65
2022/03/26 10:44:38;;;;;;;59.58;21.02;;;;;;;;;;6265843;28;20053;-63
2022/03/26 10:47:39;;;;;;;60.92;21.55;;;;;;;;;;6269041;28;20045;-61
2022/03/26 10:50:40;;;;;;;49.53;20.23;;;;;;;;;;6268296;28;20044;-60
2022/03/26 10:53:43;;;;;;;49.05;20.42;;;;;;;;;;6264955;28;20073;-63
2022/03/26 10:56:43;;;;;;;47.42;20.38;;;;;;;;;;6268761;28;20492;-68
2022/03/26 10:59:44;;;;;;;53.03;19.98;;;;;;;;;;6269164;28;20136;-62
2022/03/26 11:02:45;;;;;;;46.97;18.80;;;;;;;;;;6267506;28;20136;-61
2022/03/26 11:05:48;;;;;;;45.27;18.20;;;;;;;;;;6268322;28;20136;-63
2022/03/26 11:08:51;;;;;;;54.65;16.67;;;;;;;;;;6266479;28;20094;-61
2022/03/26 11:11:52;;;;;;;38.30;15.63;;;;;;;;;;6268155;28;20045;-60
2022/03/26 11:14:53;;;;;;;35.15;15.15;;;;;;;;;;6265006;28;20612;-59
2022/03/26 11:18:26;;;;;;;39.00;14.97;;;;;;;;;;6267983;28;20048;-60
2022/03/26 11:21:39;;;;;;;40.38;16.25;;;;;;;;;;6267757;28;20565;-59
2022/03/26 11:24:52;;;;;;;39.53;15.60;;;;;;;;;;6266864;28;20071;-61
2022/03/26 11:28:06;;;;;;;35.60;15.02;;;;;;;;;;6268394;28;20053;-60
2022/03/26 11:31:26;;;;;;;43.38;16.60;;;;;;;;;;6268222;28;20076;-60
2022/03/26 11:34:35;;;;;;;41.75;15.73;;;;;;;;;;6268571;28;20049;-62
2022/03/26 11:37:50;;;;;;;39.50;16.75;;;;;;;;;;6267354;28;20049;-60
2022/03/26 11:40:53;;;;;;;46.65;16.88;;;;;;;;;;6269955;28;20048;-61
2022/03/26 11:43:55;;;;;;;41.90;17.60;;;;;;;;;;6270844;28;20114;-60
2022/03/26 11:50:42;;;;;;;45.22;15.68;;;;;;;;;;6264844;28;19964;-61
2022/03/26 11:53:47;;;;;;;34.17;15.23;;;;;;;;;;6266041;28;20036;-60
2022/03/26 11:57:07;;;;;;;42.67;16.33;;;;;;;;;;6272144;28;20445;-59
2022/03/26 12:00:15;;;;;;;35.25;14.73;;;;;;;;;;6269157;28;20052;-62
2022/03/26 12:03:21;;;;;;;38.85;16.48;;;;;;;;;;6276077;28;20049;-63
2022/03/26 12:06:37;;;;;;;42.20;18.05;;;;;;;;;;6269802;28;20056;-62
2022/03/26 12:09:38;;;;;;;40.67;17.85;;;;;;;;;;6267151;28;20510;-62
2022/03/26 12:12:46;;;;;;;47.55;17.85;;;;;;;;;;6270351;28;20076;-61
2022/03/26 12:15:59;;;;;;;42.58;16.35;;;;;;;;;;6264627;28;20681;-61
2022/03/26 12:19:00;;;;;;;41.05;16.25;;;;;;;;;;6271337;28;20037;-62
2022/03/26 12:22:28;;;;;;;52.83;15.50;;;;;;;;;;6273012;28;20122;-61
2022/03/26 12:25:46;;;;;;;34.90;14.70;;;;;;;;;;6267696;28;20495;-60
2022/03/26 12:28:49;;;;;;;34.25;14.93;;;;;;;;;;6271026;28;20091;-61
2022/03/26 12:31:50;;;;;;;38.00;14.98;;;;;;;;;;6268943;28;20058;-62
2022/03/26 12:35:02;;;;;;;40.85;16.55;;;;;;;;;;6273229;28;20108;-61
2022/03/26 12:38:04;;;;;;;36.13;15.98;;;;;;;;;;6264228;28;20045;-61
2022/03/26 12:41:06;;;;;;;;;;;;;;;;;;6272350;28;20488;-61
2022/03/26 12:44:06;;;;;;;34.73;15.10;;;;;;;;;;6277350;28;19958;-62
2022/03/26 12:47:07;;;;;;;40.97;16.88;;;;;;;;;;6268089;28;20048;-61
2022/03/26 12:50:09;;;;;;;39.58;17.90;;;;;;;;;;6270914;28;20407;-61
2022/03/26 12:53:14;;;;;;;35.10;15.68;;;;;;;;;;6271219;28;20451;-60
2022/03/26 12:56:15;;;;;;;34.03;15.00;;;;;;;;;;6274727;28;20063;-61
2022/03/26 12:59:15;;;;;;;32.50;13.18;;;;;;;;;;6268211;28;20464;-62
2022/03/26 13:02:16;;;;;;;33.83;13.90;;;;;;;;;;6271618;28;20044;-59
2022/03/26 13:05:17;;;;;;;37.22;15.95;;;;;;;;;;6269291;28;20045;-62
2022/03/26 13:08:17;;;;;;;34.63;14.82;;;;;;;;;;6269915;28;20539;-59
2022/03/26 13:11:21;;;;;;;37.60;14.73;;;;;;;;;;6269870;28;20541;-59
2022/03/26 13:14:21;;;;;;;34.92;15.00;;;;;;;;;;6270059;28;20053;-61
2022/03/26 13:17:24;;;;;;;29.98;13.95;;;;;;;;;;6273205;28;20097;-63
2022/03/26 13:20:26;;;;;;;39.20;12.60;;;;;;;;;;6274784;28;20163;-61
2022/03/26 13:23:28;;;;;;;34.28;14.00;;;;;;;;;;6276452;28;20804;-61
2022/03/26 13:26:48;;;;;;;35.08;14.77;;;;;;;;;;6276977;28;20049;-61
2022/03/26 13:29:49;;;;;;;37.00;13.65;;;;;;;;;;6264389;28;20044;-60
2022/03/26 13:32:54;;;;;;;30.58;13.27;;;;;;;;;;6273787;28;20106;-60
2022/03/26 13:35:58;;;;;;;32.63;13.73;;;;;;;;;;6275812;28;20044;-63
2022/03/26 13:39:02;;;;;;;33.55;13.70;;;;;;;;;;6273416;28;20040;-61
2022/03/26 13:42:11;;;;;;;35.28;13.00;;;;;;;;;;6274783;28;20119;-59
2022/03/26 13:45:12;;;;;;;32.53;11.93;;;;;;;;;;6277600;28;20075;-61
2022/03/26 13:48:13;;;;;;;33.08;12.93;;;;;;;;;;6275435;28;20071;-61
2022/03/26 13:51:14;;;;;;;33.47;12.45;;;;;;;;;;6268289;28;20389;-63
2022/03/26 13:54:16;;;;;;;28.77;11.77;;;;;;;;;;6278610;28;20049;-60
2022/03/26 13:57:16;;;;;;;30.33;13.45;;;;;;;;;;6273880;28;20444;-60
2022/03/26 14:00:17;;;;;;;28.80;12.18;;;;;;;;;;6273143;28;20052;-61
2022/03/26 14:03:22;;;;;;;30.33;12.27;;;;;;;;;;6275551;28;20045;-60
2022/03/26 14:06:24;;;;;;;34.10;12.30;;;;;;;;;;6270907;28;20098;-59
2022/03/26 14:09:29;;;;;;;29.33;12.23;;;;;;;;;;6274070;28;20961;-60
2022/03/26 14:12:30;;;;;;;34.20;12.45;;;;;;;;;;6278897;28;20048;-61
2022/03/26 14:15:30;;;;;;;34.00;11.18;;;;;;;;;;6277386;28;20087;-59
2022/03/26 14:18:31;;;;;;;26.88;11.13;;;;;;;;;;6270975;28;20041;-59
2022/03/26 14:21:32;;;;;;;28.33;11.93;;;;;;;;;;6269414;28;20048;-59
2022/03/26 14:24:32;;;;;;;23.23;10.77;;;;;;;;;;6274226;28;20059;-59
2022/03/26 14:27:33;;;;;;;25.92;11.20;;;;;;;;;;6272271;28;20063;-61
2022/03/26 14:30:34;;;;;;;31.80;12.02;;;;;;;;;;6268283;28;20053;-60
2022/03/26 14:33:36;;;;;;;29.10;11.57;;;;;;;;;;6268614;28;20049;-61
2022/03/26 14:36:37;;;;;;;30.90;10.73;;;;;;;;;;6273687;28;20340;-60
2022/03/26 14:39:38;;;;;;;33.10;12.35;;;;;;;;;;6272117;28;20036;-61
2022/03/26 14:42:40;;;;;;;26.80;11.25;;;;;;;;;;6270728;28;20040;-61
2022/03/26 14:45:40;;;;;;;35.17;12.05;;;;;;;;;;6274062;28;20107;-62
2022/03/26 14:48:41;;;;;;;26.80;11.30;;;;;;;;;;6276003;28;20049;-62
2022/03/26 14:51:42;;;;;;;32.22;10.77;;;;;;;;;;6272613;28;20142;-62
2022/03/26 14:54:42;;;;;;;36.63;10.57;;;;;;;;;;6271480;28;20045;-62
2022/03/26 14:57:44;;;;;;;29.33;10.63;;;;;;;;;;6275983;28;20054;-60
2022/03/26 15:00:44;;;;;;;28.10;9.32;;;;;;;;;;6271923;28;20044;-61
2022/03/26 15:03:45;;;;;;;26.58;9.60;;;;;;;;;;6270291;28;20148;-62
2022/03/26 15:06:45;;;;;;;36.20;9.95;;;;;;;;;;6269311;28;20049;-60
2022/03/26 15:09:46;;;;;;;27.52;9.38;;;;;;;;;;6271171;28;20063;-62
2022/03/26 15:12:47;;;;;;;26.55;9.60;;;;;;;;;;6270989;28;20041;-63
2022/03/26 15:15:48;;;;;;;27.10;10.48;;;;;;;;;;6270889;28;20072;-63
2022/03/26 15:18:50;;;;;;;27.60;10.88;;;;;;;;;;6269568;28;20049;-62
2022/03/26 15:21:50;;;;;;;28.15;11.40;;;;;;;;;;6268854;28;20048;-60
2022/03/26 15:24:51;;;;;;;27.80;10.35;;;;;;;;;;6275752;28;20052;-62
2022/03/26 15:27:52;;;;;;;31.65;11.55;;;;;;;;;;6274423;28;20055;-62
2022/03/26 15:30:53;;;;;;;22.42;9.40;;;;;;;;;;6272346;28;20048;-62
2022/03/26 15:33:53;;;;;;;26.83;10.73;;;;;;;;;;6270413;28;20124;-61
2022/03/26 15:36:54;;;;;;;20.45;9.43;;;;;;;;;;6265490;28;20048;-60
2022/03/26 15:39:55;;;;;;;24.65;10.00;;;;;;;;;;6253648;28;20093;-62
2022/03/26 15:42:55;;;;;;;26.60;10.60;;;;;;;;;;6265056;28;20076;-62
2022/03/26 15:45:56;;;;;;;24.58;9.88;;;;;;;;;;6271562;28;20051;-61
2022/03/26 15:48:57;;;;;;;24.88;10.45;;;;;;;;;;6271463;28;20380;-61
2022/03/26 15:51:57;;;;;;;27.15;10.50;;;;;;;;;;6267714;28;20052;-62
2022/03/26 15:54:58;;;;;;;23.75;10.38;;;;;;;;;;6272301;28;20075;-62
2022/03/26 15:57:59;;;;;;;32.95;11.25;;;;;;;;;;6267188;28;20374;-62
2022/03/26 16:00:59;;;;;;;29.02;11.70;;;;;;;;;;6271828;28;20055;-62
2022/03/26 16:04:00;;;;;;;23.90;10.82;;;;;;;;;;6269101;28;20871;-62
2022/03/26 16:07:01;;;;;;;30.52;11.85;;;;;;;;;;6268111;28;20507;-63
2022/03/26 16:10:01;;;;;;;23.48;10.82;;;;;;;;;;6268396;28;20175;-62
2022/03/26 16:13:02;;;;;;;28.10;11.75;;;;;;;;;;6270758;28;20052;-61
2022/03/26 16:16:03;;;;;;;26.08;11.30;;;;;;;;;;6270199;28;20508;-62
2022/03/26 16:19:08;;;;;;;29.33;12.37;;;;;;;;;;6269780;28;20090;-61
2022/03/26 16:22:08;;;;;;;25.48;11.50;;;;;;;;;;6258349;28;20081;-62
2022/03/26 16:25:09;;;;;;;25.98;11.38;;;;;;;;;;6261985;28;20056;-62
2022/03/26 16:28:10;;;;;;;28.08;12.18;;;;;;;;;;6266591;28;22029;-63
2022/03/26 16:31:10;;;;;;;24.75;11.95;;;;;;;;;;6268582;28;20059;-62
2022/03/26 16:34:11;;;;;;;30.73;12.13;;;;;;;;;;6270740;28;20091;-61
2022/03/26 16:37:12;;;;;;;27.27;12.43;;;;;;;;;;6269408;28;20514;-61
2022/03/26 16:40:13;;;;;;;26.70;12.13;;;;;;;;;;6267063;28;20466;-60
2022/03/26 16:43:14;;;;;;;26.35;12.60;;;;;;;;;;6259450;28;20375;-62
2022/03/26 16:46:15;;;;;;;28.17;12.05;;;;;;;;;;6258563;28;20754;-63
2022/03/26 16:49:17;;;;;;;22.88;11.57;;;;;;;;;;6256276;28;20499;-61
2022/03/26 16:52:18;;;;;;;29.60;12.80;;;;;;;;;;6251830;28;20706;-62
2022/03/26 16:55:19;;;;;;;28.58;12.40;;;;;;;;;;6263182;28;20049;-62
2022/03/26 16:58:20;;;;;;;26.55;12.70;;;;;;;;;;6259911;28;21780;-60
2022/03/26 17:01:21;;;;;;;27.75;13.25;;;;;;;;;;6256591;28;20103;-63
2022/03/26 17:04:21;;;;;;;31.50;12.70;;;;;;;;;;6265372;28;20139;-63
2022/03/26 17:07:22;;;;;;;28.88;13.52;;;;;;;;;;6263664;28;20074;-61
2022/03/26 17:10:23;;;;;;;26.10;12.57;;;;;;;;;;6263214;28;20140;-61
2022/03/26 17:13:23;;;;;;;32.03;13.13;;;;;;;;;;6263153;28;20049;-64
2022/03/26 17:16:25;;;;;;;30.30;13.73;;;;;;;;;;6263145;28;20136;-61
2022/03/26 17:19:26;;;;;;;27.98;13.77;;;;;;;;;;6260151;28;20060;-62
2022/03/26 17:22:27;;;;;;;31.05;13.38;;;;;;;;;;6262276;28;20536;-60
2022/03/26 17:25:28;;;;;;;28.63;13.48;;;;;;;;;;6262859;28;20045;-60
2022/03/26 17:28:28;;;;;;;38.92;16.40;;;;;;;;;;6259545;28;20128;-61
2022/03/26 17:31:29;;;;;;;36.85;15.73;;;;;;;;;;6263364;28;20404;-61
2022/03/26 17:34:29;;;;;;;35.72;15.95;;;;;;;;;;6264373;28;20539;-60
2022/03/26 17:37:30;;;;;;;30.75;14.93;;;;;;;;;;6260815;28;20049;-61
2022/03/26 17:40:31;;;;;;;35.97;14.90;;;;;;;;;;6262441;28;20055;-59